Time,TemperatureF,DewpointF,PressureIn,WindDirection,WindDirectionDegrees,WindSpeedMPH,WindSpeedGustMPH,Humidity,HourlyPrecipIn,Conditions,Clouds,dailyrainin,SoftwareType,DateUTC
2013-02-22 00:02:00,17.0,13.0,30.45,NNE,30,0.0,2.0,85,0.00,,,0.00,,2013-02-22 05:02:00,
2013-02-22 00:12:00,17.0,13.0,30.45,NNE,30,0.0,2.0,85,0.00,,,0.00,,2013-02-22 05:12:00,
2013-02-22 00:22:00,18.0,14.0,30.45,WSW,256,0.0,1.0,84,0.00,,,0.00,,2013-02-22 05:22:00,
2013-02-22 00:32:00,19.0,15.0,30.47,West,264,0.0,1.0,84,0.00,,,0.00,,2013-02-22 05:32:00,
2013-02-22 00:42:00,19.0,15.0,30.47,West,264,0.0,1.0,84,0.00,,,0.00,,2013-02-22 05:42:00,
2013-02-22 00:52:00,19.0,15.0,30.47,NE,51,0.0,1.0,83,0.00,,,0.00,,2013-02-22 05:52:00,
2013-02-22 01:01:00,20.0,16.0,30.46,WSW,254,0.0,1.0,83,0.00,,,0.00,,2013-02-22 06:01:00,
2013-02-22 01:12:00,20.0,16.0,30.46,WSW,254,0.0,1.0,83,0.00,,,0.00,,2013-02-22 06:12:00,
2013-02-22 01:22:00,21.0,16.0,30.47,West,274,0.0,1.0,82,0.00,,,0.00,,2013-02-22 06:22:00,
2013-02-22 01:32:00,21.0,16.0,30.46,North,6,0.0,3.0,82,0.00,,,0.00,,2013-02-22 06:32:00,
2013-02-22 01:42:00,21.0,16.0,30.46,North,6,0.0,3.0,82,0.00,,,0.00,,2013-02-22 06:42:00,
2013-02-22 01:52:00,21.0,17.0,30.46,NE,45,0.0,1.0,83,0.00,,,0.00,,2013-02-22 06:52:00,
2013-02-22 02:01:00,21.0,16.0,30.47,NNE,13,0.0,0.0,82,0.00,,,0.00,,2013-02-22 07:01:00,
2013-02-22 02:11:00,21.0,16.0,30.47,NNE,13,0.0,0.0,82,0.00,,,0.00,,2013-02-22 07:11:00,
2013-02-22 02:22:00,22.0,17.0,30.47,West,274,1.0,2.0,82,0.00,,,0.00,,2013-02-22 07:22:00,
2013-02-22 02:32:00,23.0,18.0,30.47,WSW,238,0.0,2.0,81,0.00,,,0.00,,2013-02-22 07:32:00,
2013-02-22 02:42:00,23.0,18.0,30.47,WSW,238,0.0,2.0,81,0.00,,,0.00,,2013-02-22 07:42:00,
2013-02-22 02:52:00,23.0,18.0,30.46,SW,229,0.0,4.0,81,0.00,,,0.00,,2013-02-22 07:52:00,
2013-02-22 03:01:00,23.0,18.0,30.46,WSW,256,0.0,1.0,81,0.00,,,0.00,,2013-02-22 08:01:00,
2013-02-22 03:11:00,23.0,18.0,30.46,WSW,256,0.0,1.0,81,0.00,,,0.00,,2013-02-22 08:11:00,
2013-02-22 03:21:00,23.0,18.0,30.47,WSW,243,0.0,1.0,81,0.00,,,0.00,,2013-02-22 08:21:00,
2013-02-22 03:32:00,23.0,18.0,30.47,North,349,0.0,2.0,81,0.00,,,0.00,,2013-02-22 08:32:00,
2013-02-22 03:42:00,23.0,18.0,30.47,North,349,0.0,2.0,81,0.00,,,0.00,,2013-02-22 08:42:00,
2013-02-22 03:52:00,22.0,17.0,30.47,WSW,253,0.0,1.0,82,0.00,,,0.00,,2013-02-22 08:52:00,
2013-02-22 04:03:00,22.0,17.0,30.47,WSW,253,0.0,0.0,82,0.00,,,0.00,,2013-02-22 09:03:00,
2013-02-22 04:11:00,21.0,17.0,30.46,SSE,150,0.0,1.0,84,0.00,,,0.00,,2013-02-22 09:11:00,
2013-02-22 04:22:00,21.0,17.0,30.46,SSE,150,0.0,1.0,84,0.00,,,0.00,,2013-02-22 09:22:00,
2013-02-22 04:32:00,20.0,16.0,30.46,SSE,157,0.0,2.0,85,0.00,,,0.00,,2013-02-22 09:32:00,
2013-02-22 04:42:00,20.0,16.0,30.46,SSE,157,0.0,2.0,85,0.00,,,0.00,,2013-02-22 09:42:00,
2013-02-22 04:52:00,19.0,16.0,30.46,SSE,157,0.0,1.0,86,0.00,,,0.00,,2013-02-22 09:52:00,
2013-02-22 05:01:00,18.0,15.0,30.47,SSE,156,0.0,0.0,87,0.00,,,0.00,,2013-02-22 10:01:00,
2013-02-22 05:11:00,18.0,15.0,30.47,SSE,156,0.0,0.0,87,0.00,,,0.00,,2013-02-22 10:11:00,
2013-02-22 05:21:00,18.0,15.0,30.47,SSE,156,0.0,0.0,87,0.00,,,0.00,,2013-02-22 10:21:00,
2013-02-22 05:32:00,17.0,14.0,30.50,SSW,208,0.0,1.0,88,0.00,,,0.00,,2013-02-22 10:32:00,
2013-02-22 05:42:00,17.0,14.0,30.50,SSW,208,0.0,1.0,88,0.00,,,0.00,,2013-02-22 10:42:00,
2013-02-22 05:52:00,16.0,13.0,30.53,South,179,0.0,1.0,89,0.00,,,0.00,,2013-02-22 10:52:00,
2013-02-22 06:01:00,16.0,13.0,30.53,South,179,0.0,1.0,89,0.00,,,0.00,,2013-02-22 11:01:00,
2013-02-22 06:11:00,16.0,13.0,30.53,South,179,0.0,1.0,89,0.00,,,0.00,,2013-02-22 11:11:00,
2013-02-22 06:22:00,15.0,13.0,30.54,South,177,0.0,0.0,90,0.00,,,0.00,,2013-02-22 11:22:00,
2013-02-22 06:32:00,15.0,13.0,30.54,South,177,0.0,0.0,90,0.00,,,0.00,,2013-02-22 11:32:00,
2013-02-22 06:42:00,15.0,13.0,30.54,South,177,0.0,0.0,90,0.00,,,0.00,,2013-02-22 11:42:00,
2013-02-22 06:52:00,14.0,12.0,30.55,South,177,0.0,0.0,90,0.00,,,0.00,,2013-02-22 11:52:00,
2013-02-22 07:02:00,14.0,12.0,30.57,South,177,0.0,0.0,91,0.00,,,0.00,,2013-02-22 12:02:00,
2013-02-22 07:11:00,14.0,12.0,30.57,South,177,0.0,0.0,91,0.00,,,0.00,,2013-02-22 12:11:00,
2013-02-22 07:22:00,14.0,12.0,30.57,South,177,0.0,0.0,91,0.00,,,0.00,,2013-02-22 12:22:00,
2013-02-22 07:32:00,14.0,12.0,30.57,South,177,0.0,0.0,91,0.00,,,0.00,,2013-02-22 12:32:00,
2013-02-22 07:42:00,14.0,12.0,30.57,South,177,0.0,0.0,91,0.00,,,0.00,,2013-02-22 12:42:00,
2013-02-22 07:52:00,15.0,13.0,30.57,South,177,0.0,0.0,90,0.00,,,0.00,,2013-02-22 12:52:00,
2013-02-22 08:02:00,17.0,13.0,30.57,South,177,0.0,0.0,85,0.00,,,0.00,,2013-02-22 13:02:00,
2013-02-22 08:11:00,17.0,13.0,30.57,South,177,0.0,0.0,85,0.00,,,0.00,,2013-02-22 13:11:00,
2013-02-22 08:22:00,20.0,16.0,30.58,South,177,0.0,0.0,85,0.00,,,0.00,,2013-02-22 13:22:00,
2013-02-22 08:32:00,23.0,18.0,30.58,South,170,0.0,0.0,81,0.00,,,0.00,,2013-02-22 13:32:00,
2013-02-22 08:42:00,23.0,18.0,30.58,South,170,0.0,0.0,81,0.00,,,0.00,,2013-02-22 13:42:00,
2013-02-22 08:52:00,28.0,20.0,30.58,South,170,0.0,0.0,73,0.00,,,0.00,,2013-02-22 13:52:00,
2013-02-22 09:01:00,29.0,20.0,30.58,South,170,0.0,0.0,70,0.00,,,0.00,,2013-02-22 14:01:00,
2013-02-22 09:11:00,30.0,21.0,30.57,West,259,0.0,1.0,68,0.00,,,0.00,,2013-02-22 14:11:00,
2013-02-22 09:21:00,30.0,21.0,30.57,West,259,0.0,1.0,68,0.00,,,0.00,,2013-02-22 14:21:00,
2013-02-22 09:32:00,30.0,21.0,30.58,WNW,283,1.0,3.0,69,0.00,,,0.00,,2013-02-22 14:32:00,
2013-02-22 09:42:00,30.0,21.0,30.58,WNW,283,1.0,3.0,69,0.00,,,0.00,,2013-02-22 14:42:00,
2013-02-22 09:53:00,31.0,21.0,30.57,WSW,251,1.0,4.0,66,0.00,,,0.00,,2013-02-22 14:53:00,
2013-02-22 10:01:00,31.0,20.0,30.56,West,276,3.0,4.0,64,0.00,,,0.00,,2013-02-22 15:01:00,
2013-02-22 10:11:00,31.0,20.0,30.56,West,276,3.0,4.0,64,0.00,,,0.00,,2013-02-22 15:11:00,
2013-02-22 10:22:00,32.0,21.0,30.56,West,269,1.0,4.0,63,0.00,,,0.00,,2013-02-22 15:22:00,
2013-02-22 10:32:00,33.0,21.0,30.55,WSW,243,0.0,4.0,61,0.00,,,0.00,,2013-02-22 15:32:00,
2013-02-22 10:42:00,33.0,21.0,30.55,WSW,243,0.0,4.0,61,0.00,,,0.00,,2013-02-22 15:42:00,
2013-02-22 10:52:00,35.0,21.0,30.54,West,278,0.0,2.0,56,0.00,,,0.00,,2013-02-22 15:52:00,
2013-02-22 11:02:00,36.0,19.0,30.54,South,191,1.0,7.0,49,0.00,,,0.00,,2013-02-22 16:02:00,
2013-02-22 11:12:00,36.0,19.0,30.54,South,191,1.0,7.0,49,0.00,,,0.00,,2013-02-22 16:12:00,
2013-02-22 11:22:00,36.0,20.0,30.53,SSE,152,1.0,5.0,51,0.00,,,0.00,,2013-02-22 16:22:00,
2013-02-22 11:32:00,36.0,18.0,30.53,ENE,77,1.0,4.0,48,0.00,,,0.00,,2013-02-22 16:32:00,
2013-02-22 11:42:00,36.0,18.0,30.53,ENE,77,1.0,4.0,48,0.00,,,0.00,,2013-02-22 16:42:00,
2013-02-22 11:52:00,36.0,19.0,30.52,SE,138,3.0,5.0,49,0.00,,,0.00,,2013-02-22 16:52:00,
2013-02-22 12:01:00,36.0,19.0,30.53,North,6,1.0,4.0,50,0.00,,,0.00,,2013-02-22 17:01:00,
2013-02-22 12:11:00,36.0,19.0,30.53,North,6,1.0,4.0,50,0.00,,,0.00,,2013-02-22 17:11:00,
2013-02-22 12:22:00,37.0,19.0,30.53,South,188,0.0,3.0,48,0.00,,,0.00,,2013-02-22 17:22:00,
2013-02-22 12:32:00,37.0,19.0,30.53,SW,228,1.0,3.0,48,0.00,,,0.00,,2013-02-22 17:32:00,
2013-02-22 12:42:00,37.0,19.0,30.53,SW,228,1.0,3.0,48,0.00,,,0.00,,2013-02-22 17:42:00,
2013-02-22 12:52:00,38.0,20.0,30.52,WSW,256,1.0,4.0,47,0.00,,,0.00,,2013-02-22 17:52:00,
2013-02-22 13:01:00,38.0,20.0,30.52,WSW,256,1.0,4.0,47,0.00,,,0.00,,2013-02-22 18:01:00,
2013-02-22 13:12:00,38.0,20.0,30.51,SW,235,1.0,2.0,47,0.00,,,0.00,,2013-02-22 18:12:00,
2013-02-22 13:22:00,38.0,20.0,30.51,SW,235,1.0,2.0,47,0.00,,,0.00,,2013-02-22 18:22:00,
2013-02-22 13:32:00,37.0,19.0,30.51,SSE,157,0.0,3.0,48,0.00,,,0.00,,2013-02-22 18:32:00,
2013-02-22 13:42:00,37.0,19.0,30.51,SSE,157,0.0,3.0,48,0.00,,,0.00,,2013-02-22 18:42:00,
2013-02-22 13:52:00,38.0,19.0,30.50,SSW,210,2.0,4.0,46,0.00,,,0.00,,2013-02-22 18:52:00,
2013-02-22 14:01:00,38.0,19.0,30.49,WSW,248,0.0,3.0,46,0.00,,,0.00,,2013-02-22 19:01:00,
2013-02-22 14:11:00,38.0,19.0,30.48,WSW,250,0.0,2.0,45,0.00,,,0.00,,2013-02-22 19:11:00,
2013-02-22 14:21:00,38.0,19.0,30.48,WSW,250,0.0,2.0,45,0.00,,,0.00,,2013-02-22 19:21:00,
2013-02-22 14:31:00,38.0,19.0,30.48,WSW,250,0.0,2.0,45,0.00,,,0.00,,2013-02-22 19:31:00,
2013-02-22 14:41:00,38.0,19.0,30.48,ENE,73,0.0,3.0,46,0.00,,,0.00,,2013-02-22 19:41:00,
2013-02-22 14:52:00,38.0,19.0,30.48,ENE,73,0.0,3.0,46,0.00,,,0.00,,2013-02-22 19:52:00,
2013-02-22 15:01:00,39.0,19.0,30.48,NE,53,0.0,1.0,44,0.00,,,0.00,,2013-02-22 20:01:00,
2013-02-22 15:11:00,39.0,19.0,30.48,NE,53,0.0,1.0,44,0.00,,,0.00,,2013-02-22 20:11:00,
2013-02-22 15:21:00,38.0,19.0,30.49,SSE,155,0.0,2.0,45,0.00,,,0.00,,2013-02-22 20:21:00,
2013-02-22 15:32:00,38.0,18.0,30.49,East,79,0.0,1.0,44,0.00,,,0.00,,2013-02-22 20:32:00,
2013-02-22 15:42:00,38.0,18.0,30.49,East,79,0.0,1.0,44,0.00,,,0.00,,2013-02-22 20:42:00,
2013-02-22 15:52:00,38.0,19.0,30.47,ENE,73,2.0,3.0,45,0.00,,,0.00,,2013-02-22 20:52:00,
2013-02-22 16:01:00,37.0,19.0,30.48,ENE,71,0.0,4.0,47,0.00,,,0.00,,2013-02-22 21:01:00,
2013-02-22 16:11:00,37.0,19.0,30.48,ENE,71,0.0,4.0,47,0.00,,,0.00,,2013-02-22 21:11:00,
2013-02-22 16:21:00,37.0,19.0,30.47,ENE,74,2.0,3.0,48,0.00,,,0.00,,2013-02-22 21:21:00,
2013-02-22 16:32:00,37.0,19.0,30.47,ENE,74,2.0,3.0,48,0.00,,,0.00,,2013-02-22 21:32:00,
2013-02-22 16:42:00,37.0,19.0,30.47,ENE,74,2.0,3.0,48,0.00,,,0.00,,2013-02-22 21:42:00,
2013-02-22 16:52:00,37.0,19.0,30.47,East,82,0.0,3.0,48,0.00,,,0.00,,2013-02-22 21:52:00,
2013-02-22 17:01:00,37.0,18.0,30.47,ENE,65,2.0,5.0,46,0.00,,,0.00,,2013-02-22 22:01:00,
2013-02-22 17:11:00,37.0,18.0,30.47,ENE,65,2.0,5.0,46,0.00,,,0.00,,2013-02-22 22:11:00,
2013-02-22 17:21:00,37.0,19.0,30.47,ENE,64,1.0,5.0,48,0.00,,,0.00,,2013-02-22 22:21:00,
2013-02-22 17:32:00,36.0,19.0,30.47,ENE,75,1.0,2.0,49,0.00,,,0.00,,2013-02-22 22:32:00,
2013-02-22 17:42:00,36.0,19.0,30.47,ENE,75,1.0,2.0,49,0.00,,,0.00,,2013-02-22 22:42:00,
2013-02-22 17:51:00,35.0,18.0,30.47,East,82,0.0,2.0,50,0.00,,,0.00,,2013-02-22 22:51:00,
2013-02-22 18:01:00,35.0,19.0,30.48,East,87,0.0,1.0,52,0.00,,,0.00,,2013-02-22 23:01:00,
2013-02-22 18:11:00,35.0,19.0,30.48,East,87,0.0,1.0,52,0.00,,,0.00,,2013-02-22 23:11:00,
2013-02-22 18:21:00,33.0,19.0,30.47,East,79,1.0,1.0,56,0.00,,,0.00,,2013-02-22 23:21:00,
2013-02-22 18:32:00,33.0,21.0,30.48,East,80,0.0,0.0,60,0.00,,,0.00,,2013-02-22 23:32:00,
2013-02-22 18:42:00,33.0,21.0,30.48,East,80,0.0,0.0,60,0.00,,,0.00,,2013-02-22 23:42:00,
2013-02-22 18:52:00,32.0,22.0,30.48,East,81,0.0,0.0,66,0.00,,,0.00,,2013-02-22 23:52:00,
2013-02-22 19:02:00,31.0,21.0,30.48,East,79,0.0,0.0,66,0.00,,,0.00,,2013-02-23 00:02:00,
2013-02-22 19:11:00,31.0,21.0,30.48,East,79,0.0,0.0,66,0.00,,,0.00,,2013-02-23 00:11:00,
2013-02-22 19:21:00,30.0,21.0,30.48,East,79,0.0,0.0,70,0.00,,,0.00,,2013-02-23 00:21:00,
2013-02-22 19:32:00,30.0,22.0,30.48,West,271,0.0,0.0,71,0.00,,,0.00,,2013-02-23 00:32:00,
2013-02-22 19:42:00,30.0,22.0,30.48,West,271,0.0,0.0,71,0.00,,,0.00,,2013-02-23 00:42:00,
2013-02-22 19:51:00,30.0,20.0,30.48,West,271,0.0,0.0,67,0.00,,,0.00,,2013-02-23 00:51:00,
2013-02-22 20:01:00,30.0,20.0,30.48,West,271,0.0,0.0,67,0.00,,,0.00,,2013-02-23 01:01:00,
2013-02-22 20:11:00,30.0,20.0,30.48,West,271,0.0,0.0,67,0.00,,,0.00,,2013-02-23 01:11:00,
2013-02-22 20:21:00,31.0,21.0,30.48,SSE,167,0.0,0.0,65,0.00,,,0.00,,2013-02-23 01:21:00,
2013-02-22 20:32:00,32.0,20.0,30.48,WSW,256,0.0,2.0,61,0.00,,,0.00,,2013-02-23 01:32:00,
2013-02-22 20:42:00,32.0,20.0,30.48,WSW,256,0.0,2.0,61,0.00,,,0.00,,2013-02-23 01:42:00,
2013-02-22 20:51:00,32.0,20.0,30.48,WSW,256,0.0,0.0,61,0.00,,,0.00,,2013-02-23 01:51:00,
2013-02-22 21:01:00,31.0,20.0,30.48,SSE,160,0.0,1.0,63,0.00,,,0.00,,2013-02-23 02:01:00,
2013-02-22 21:11:00,32.0,21.0,30.49,South,189,0.0,2.0,63,0.00,,,0.00,,2013-02-23 02:11:00,
2013-02-22 21:21:00,32.0,21.0,30.49,South,189,0.0,2.0,63,0.00,,,0.00,,2013-02-23 02:21:00,
2013-02-22 21:32:00,32.0,20.0,30.48,East,81,0.0,2.0,62,0.00,,,0.00,,2013-02-23 02:32:00,
2013-02-22 21:42:00,32.0,20.0,30.48,East,81,0.0,2.0,62,0.00,,,0.00,,2013-02-23 02:42:00,
2013-02-22 21:52:00,32.0,20.0,30.48,SSE,162,1.0,4.0,62,0.00,,,0.00,,2013-02-23 02:52:00,
2013-02-22 22:02:00,32.0,21.0,30.48,WNW,285,0.0,4.0,64,0.00,,,0.00,,2013-02-23 03:02:00,
2013-02-22 22:11:00,32.0,21.0,30.48,WNW,285,0.0,4.0,64,0.00,,,0.00,,2013-02-23 03:11:00,
2013-02-22 22:21:00,32.0,22.0,30.48,West,260,0.0,3.0,65,0.00,,,0.00,,2013-02-23 03:21:00,
2013-02-22 22:32:00,31.0,21.0,30.48,SW,233,0.0,4.0,67,0.00,,,0.00,,2013-02-23 03:32:00,
2013-02-22 22:42:00,31.0,21.0,30.48,SW,233,0.0,4.0,67,0.00,,,0.00,,2013-02-23 03:42:00,
2013-02-22 22:52:00,31.0,22.0,30.48,SE,145,0.0,3.0,68,0.00,,,0.00,,2013-02-23 03:52:00,
2013-02-22 23:01:00,31.0,22.0,30.48,SE,145,0.0,3.0,68,0.00,,,0.00,,2013-02-23 04:01:00,
2013-02-22 23:11:00,30.0,21.0,30.48,ENE,74,1.0,2.0,69,0.00,,,0.00,,2013-02-23 04:11:00,
2013-02-22 23:21:00,30.0,21.0,30.48,ENE,74,1.0,2.0,69,0.00,,,0.00,,2013-02-23 04:21:00,
2013-02-22 23:32:00,31.0,22.0,30.48,SSE,148,0.0,2.0,69,0.00,,,0.00,,2013-02-23 04:32:00,
2013-02-22 23:42:00,31.0,22.0,30.48,SSE,148,0.0,2.0,69,0.00,,,0.00,,2013-02-23 04:42:00,
2013-02-22 23:51:00,31.0,22.0,30.48,WSW,239,0.0,3.0,69,0.00,,,0.00,,2013-02-23 04:51:00,